createdAt,value
2022-12-29T00:00:20.851Z,2.65
2022-12-29T00:02:47.920Z,3.20
2022-12-29T00:05:14.989Z,3.00
2022-12-29T00:07:41.851Z,3.50
2022-12-29T00:10:09.049Z,2.97
2022-12-29T00:12:54.816Z,2.78
2022-12-29T00:15:39.732Z,3.40
2022-12-29T00:18:08.159Z,2.60
2022-12-29T00:20:57.148Z,2.35
2022-12-29T00:23:42.884Z,1.95
2022-12-29T00:26:36.291Z,2.00
2022-12-29T00:29:22.654Z,2.13
2022-12-29T00:32:07.951Z,1.42
2022-12-29T00:34:53.281Z,1.52
2022-12-29T00:37:40.281Z,1.33
2022-12-29T00:40:25.837Z,1.30
2022-12-29T00:43:11.745Z,1.02
2022-12-29T00:45:42.334Z,0.88
2022-12-29T00:48:09.116Z,1.17
2022-12-29T00:50:35.877Z,1.10
2022-12-29T00:53:02.656Z,1.02
2022-12-29T00:55:29.481Z,1.10
2022-12-29T00:57:56.504Z,1.33
2022-12-29T01:00:23.381Z,1.23
2022-12-29T01:02:50.269Z,1.00
2022-12-29T01:05:17.464Z,1.60
2022-12-29T01:07:45.954Z,1.40
2022-12-29T01:10:12.813Z,1.63
2022-12-29T01:12:42.632Z,1.73
2022-12-29T01:15:16.039Z,1.80
2022-12-29T01:17:43.549Z,3.03
2022-12-29T01:20:11.948Z,3.08
2022-12-29T01:22:39.100Z,2.88
2022-12-29T01:25:07.455Z,3.63
2022-12-29T01:27:35.140Z,3.53
2022-12-29T01:30:01.997Z,3.30
2022-12-29T01:32:28.776Z,3.72
2022-12-29T01:34:55.556Z,2.53
2022-12-29T01:37:22.527Z,2.97
2022-12-29T01:39:49.303Z,2.67
2022-12-29T01:42:19.998Z,2.60
2022-12-29T01:45:02.492Z,2.10
2022-12-29T01:47:42.115Z,1.77
2022-12-29T01:50:23.904Z,1.73
2022-12-29T01:53:03.660Z,1.48
2022-12-29T01:55:39.300Z,1.75
2022-12-29T01:58:11.385Z,1.10
2022-12-29T02:00:38.948Z,1.30
2022-12-29T02:03:09.407Z,1.27
2022-12-29T02:05:49.794Z,1.38
2022-12-29T02:08:16.943Z,1.30
2022-12-29T02:10:46.164Z,1.15
2022-12-29T02:13:16.546Z,1.10
2022-12-29T02:15:54.007Z,1.10
2022-12-29T02:18:53.501Z,1.25
2022-12-29T02:22:14.591Z,1.35
2022-12-29T02:25:31.111Z,1.00
2022-12-29T02:28:29.128Z,1.30
2022-12-29T02:31:47.118Z,1.25
2022-12-29T02:34:44.025Z,1.15
2022-12-29T02:37:42.909Z,1.77
2022-12-29T02:40:39.786Z,1.48
2022-12-29T02:43:48.853Z,1.35
2022-12-29T02:46:21.684Z,1.40
2022-12-29T02:49:09.139Z,1.23
2022-12-29T02:51:42.168Z,1.25
2022-12-29T02:54:28.077Z,1.25
2022-12-29T02:56:55.395Z,1.10
2022-12-29T02:59:23.687Z,1.20
2022-12-29T03:02:32.137Z,1.10
2022-12-29T03:05:41.265Z,1.20
2022-12-29T03:08:28.284Z,0.88
2022-12-29T03:11:04.543Z,1.30
2022-12-29T03:14:02.670Z,1.13
2022-12-29T03:19:33.769Z,0.90
2022-12-29T03:22:29.112Z,1.05
2022-12-29T03:25:40.157Z,1.08
2022-12-29T03:28:28.695Z,0.95
2022-12-29T03:30:59.740Z,1.30
2022-12-29T03:33:31.984Z,1.38
2022-12-29T03:36:08.386Z,0.80
2022-12-29T03:38:54.059Z,0.88
2022-12-29T03:41:29.709Z,1.27
2022-12-29T03:43:57.573Z,1.20
2022-12-29T03:46:24.491Z,1.10
2022-12-29T03:48:52.035Z,1.15
2022-12-29T03:51:18.907Z,1.20
2022-12-29T03:53:45.916Z,0.90
2022-12-29T03:56:13.187Z,1.00
2022-12-29T03:58:40.110Z,0.80
2022-12-29T04:01:14.652Z,1.30
2022-12-29T04:03:41.688Z,1.00
2022-12-29T04:06:08.804Z,0.90
2022-12-29T04:08:45.222Z,1.00
2022-12-29T04:11:12.398Z,1.35
2022-12-29T04:13:41.937Z,1.05
2022-12-29T04:16:11.051Z,0.90
2022-12-29T04:18:37.947Z,1.10
2022-12-29T04:21:05.467Z,1.00
2022-12-29T04:23:38.299Z,1.33
2022-12-29T04:26:10.015Z,1.60
2022-12-29T04:28:47.900Z,1.40
2022-12-29T04:31:37.815Z,1.52
2022-12-29T04:34:05.056Z,1.25
2022-12-29T04:36:33.180Z,1.00
2022-12-29T04:39:00.377Z,1.08
2022-12-29T04:41:28.719Z,1.27
2022-12-29T04:43:55.581Z,1.33
2022-12-29T04:46:31.374Z,1.20
2022-12-29T04:49:09.515Z,1.48
2022-12-29T04:51:55.116Z,1.58
2022-12-29T04:54:21.962Z,1.38
2022-12-29T04:56:55.998Z,1.50
2022-12-29T04:59:24.477Z,1.48
2022-12-29T05:01:55.190Z,1.90
2022-12-29T05:04:22.695Z,1.75
2022-12-29T05:06:50.450Z,1.63
2022-12-29T05:09:18.303Z,1.75
2022-12-29T05:11:45.607Z,1.42
2022-12-29T05:14:13.045Z,1.55
2022-12-29T05:16:40.226Z,1.38
2022-12-29T05:19:07.033Z,1.15
2022-12-29T05:21:34.668Z,1.70
2022-12-29T05:24:01.983Z,1.15
2022-12-29T05:26:29.462Z,1.23
2022-12-29T05:29:11.197Z,1.50
2022-12-29T05:31:37.962Z,2.08
2022-12-29T05:34:06.266Z,1.42
2022-12-29T05:36:37.793Z,1.60
2022-12-29T05:39:09.011Z,1.60
2022-12-29T05:41:37.036Z,2.33
2022-12-29T05:44:12.481Z,1.40
2022-12-29T05:46:45.856Z,1.65
2022-12-29T05:49:34.243Z,1.17
2022-12-29T05:52:30.463Z,1.42
2022-12-29T05:54:57.277Z,1.88
2022-12-29T05:57:26.529Z,1.80
2022-12-29T06:00:11.391Z,1.85
2022-12-29T06:02:46.922Z,1.88
2022-12-29T06:05:15.915Z,1.20
2022-12-29T06:07:43.006Z,1.90
2022-12-29T06:10:10.396Z,1.67
2022-12-29T06:12:44.434Z,1.75
2022-12-29T06:15:11.764Z,1.30
2022-12-29T06:17:41.675Z,1.65
2022-12-29T06:20:10.608Z,1.98
2022-12-29T06:22:38.104Z,1.65
2022-12-29T06:25:06.479Z,1.77
2022-12-29T06:27:34.857Z,1.20
2022-12-29T06:30:01.969Z,1.48
2022-12-29T06:32:29.311Z,2.22
2022-12-29T06:35:03.240Z,1.50
2022-12-29T06:37:30.870Z,1.73
2022-12-29T06:39:57.683Z,1.08
2022-12-29T06:42:29.280Z,1.80
2022-12-29T06:45:25.125Z,1.50
2022-12-29T06:47:51.964Z,1.30
2022-12-29T06:50:18.699Z,1.45
2022-12-29T06:52:45.478Z,1.33
2022-12-29T06:55:12.211Z,1.30
2022-12-29T06:57:39.500Z,1.42
2022-12-29T07:00:07.380Z,1.23
2022-12-29T07:02:34.333Z,1.48
2022-12-29T07:05:01.204Z,1.60
2022-12-29T07:07:28.056Z,1.90
2022-12-29T07:09:54.792Z,1.40
2022-12-29T07:12:21.634Z,1.33
2022-12-29T07:14:48.493Z,1.67
2022-12-29T07:17:15.211Z,1.98
2022-12-29T07:19:42.591Z,1.45
2022-12-29T07:22:10.868Z,1.60
2022-12-29T07:24:37.610Z,1.73
2022-12-29T07:27:05.194Z,1.30
2022-12-29T07:29:32.243Z,1.95
2022-12-29T07:32:01.140Z,2.15
2022-12-29T07:34:28.039Z,1.63
2022-12-29T07:36:54.818Z,1.45
2022-12-29T07:39:21.574Z,0.80
2022-12-29T07:41:48.357Z,1.80
2022-12-29T07:44:19.123Z,1.98
2022-12-29T07:46:59.454Z,2.03
2022-12-29T07:49:27.364Z,2.17
2022-12-29T07:51:54.417Z,1.40
2022-12-29T07:54:21.525Z,2.08
2022-12-29T07:56:48.346Z,2.30
2022-12-29T07:59:16.358Z,2.15
2022-12-29T08:01:43.868Z,2.17
2022-12-29T08:04:10.796Z,1.88
2022-12-29T08:06:38.789Z,2.00
2022-12-29T08:09:13.426Z,2.75
2022-12-29T08:11:44.398Z,1.83
2022-12-29T08:14:11.576Z,2.00
2022-12-29T08:16:38.382Z,1.75
2022-12-29T08:19:06.049Z,1.98
2022-12-29T08:21:33.054Z,2.55
2022-12-29T08:24:00.287Z,1.58
2022-12-29T08:26:27.488Z,1.52
2022-12-29T08:28:56.715Z,2.20
2022-12-29T08:31:25.068Z,1.67
2022-12-29T08:33:52.397Z,1.90
2022-12-29T08:36:19.342Z,1.75
2022-12-29T08:38:46.088Z,1.63
2022-12-29T08:41:12.909Z,2.78
2022-12-29T08:43:39.670Z,2.50
2022-12-29T08:46:06.673Z,2.10
2022-12-29T08:48:33.573Z,1.95
2022-12-29T08:51:00.286Z,2.25
2022-12-29T08:53:27.205Z,2.30
2022-12-29T08:56:05.110Z,2.05
2022-12-29T08:58:40.695Z,2.20
2022-12-29T09:01:08.042Z,2.55
2022-12-29T09:04:12.719Z,1.77
2022-12-29T09:06:22.423Z,2.83
2022-12-29T09:08:49.262Z,2.30
2022-12-29T09:11:21.380Z,2.53
2022-12-29T09:13:48.334Z,1.92
2022-12-29T09:16:16.598Z,2.00
2022-12-29T09:18:44.226Z,1.63
2022-12-29T09:21:12.865Z,1.77
2022-12-29T09:23:41.390Z,2.55
2022-12-29T09:26:09.633Z,2.28
2022-12-29T09:28:36.531Z,1.40
2022-12-29T09:31:04.199Z,2.80
2022-12-29T09:33:33.525Z,1.88
2022-12-29T09:36:00.657Z,2.22
2022-12-29T09:38:28.883Z,2.50
2022-12-29T09:41:32.210Z,2.25
2022-12-29T09:44:08.111Z,2.03
2022-12-29T09:46:49.768Z,1.73
2022-12-29T09:49:46.833Z,2.35
2022-12-29T09:52:22.449Z,2.17
2022-12-29T09:55:03.854Z,1.92
2022-12-29T09:57:48.078Z,1.60
2022-12-29T10:00:19.064Z,2.60
2022-12-29T10:03:03.938Z,1.95
2022-12-29T10:05:49.216Z,2.35
2022-12-29T10:08:18.941Z,2.67
2022-12-29T10:11:25.447Z,2.05
2022-12-29T10:14:25.521Z,2.10
2022-12-29T10:17:13.710Z,1.77
2022-12-29T10:20:32.145Z,1.75
2022-12-29T10:23:24.963Z,2.47
2022-12-29T10:25:57.505Z,2.60
2022-12-29T10:28:50.793Z,2.22
2022-12-29T10:31:25.722Z,1.83
2022-12-29T10:34:04.452Z,1.80
2022-12-29T10:39:41.306Z,2.53
2022-12-29T10:42:26.530Z,2.17
2022-12-29T10:44:56.175Z,2.63
2022-12-29T10:47:30.775Z,2.30
2022-12-29T10:49:59.400Z,2.63
2022-12-29T10:52:29.412Z,2.50
2022-12-29T10:55:22.798Z,2.65
2022-12-29T10:57:50.548Z,2.50
2022-12-29T11:00:22.968Z,1.85
2022-12-29T11:05:58.702Z,1.70
2022-12-29T11:08:39.366Z,2.15
2022-12-29T11:11:10.673Z,2.20
2022-12-29T11:13:56.250Z,2.13
2022-12-29T11:16:35.751Z,2.65
2022-12-29T11:19:02.885Z,3.17
2022-12-29T11:21:41.356Z,2.80
2022-12-29T11:24:29.376Z,3.90
2022-12-29T11:27:20.557Z,2.22
2022-12-29T11:32:29.153Z,2.75
2022-12-29T11:34:59.652Z,2.40
2022-12-29T11:37:41.128Z,2.83
2022-12-29T11:40:20.408Z,2.88
2022-12-29T11:42:59.845Z,3.05
2022-12-29T11:45:38.105Z,2.03
2022-12-29T11:48:18.513Z,2.95
2022-12-29T11:50:55.559Z,2.78
2022-12-29T11:53:26.108Z,3.13
2022-12-29T11:55:59.954Z,2.58
2022-12-29T11:58:35.530Z,3.33
2022-12-29T12:01:12.144Z,2.78
2022-12-29T12:03:49.398Z,3.47
2022-12-29T12:06:22.391Z,2.08
2022-12-29T12:09:03.577Z,2.65
2022-12-29T12:11:38.961Z,3.05
2022-12-29T12:14:21.611Z,3.08
2022-12-29T12:17:38.445Z,3.10
2022-12-29T12:20:35.940Z,1.98
2022-12-29T12:23:35.975Z,2.92
2022-12-29T12:26:21.144Z,3.47
2022-12-29T12:29:02.036Z,2.80
2022-12-29T12:31:50.466Z,2.63
2022-12-29T12:34:31.672Z,2.45
2022-12-29T12:37:25.835Z,1.90
2022-12-29T12:40:19.509Z,2.83
2022-12-29T12:42:56.036Z,2.35
2022-12-29T12:45:50.089Z,2.55
2022-12-29T12:48:33.075Z,1.80
2022-12-29T12:51:21.471Z,2.15
2022-12-29T12:54:38.748Z,3.03
2022-12-29T12:57:32.511Z,2.17
2022-12-29T13:00:06.114Z,2.40
2022-12-29T13:02:55.502Z,2.30
2022-12-29T13:06:01.347Z,3.22
2022-12-29T13:08:52.054Z,2.13
2022-12-29T13:11:49.589Z,2.67
2022-12-29T13:17:31.656Z,2.40
2022-12-29T13:20:19.005Z,2.22
2022-12-29T13:23:24.425Z,2.38
2022-12-29T13:26:22.994Z,2.35
2022-12-29T13:29:09.682Z,2.28
2022-12-29T13:32:19.246Z,2.17
2022-12-29T13:35:02.709Z,1.80
2022-12-29T13:37:37.177Z,2.25
2022-12-29T13:40:17.890Z,2.15
2022-12-29T13:42:46.830Z,2.33
2022-12-29T13:45:22.152Z,2.38
2022-12-29T13:48:06.864Z,2.47
2022-12-29T13:50:39.458Z,1.60
2022-12-29T13:53:39.786Z,3.20
2022-12-29T13:56:43.564Z,2.80
2022-12-29T13:59:55.252Z,2.28
2022-12-29T14:02:47.879Z,2.30
2022-12-29T14:05:23.752Z,2.25
2022-12-29T14:08:19.155Z,2.15
2022-12-29T14:10:52.936Z,2.08
2022-12-29T14:13:27.189Z,1.73
2022-12-29T14:15:58.927Z,2.75
2022-12-29T14:18:34.092Z,2.08
2022-12-29T14:21:23.633Z,2.58
2022-12-29T14:23:52.100Z,2.17
2022-12-29T14:26:36.757Z,3.15
2022-12-29T14:29:25.315Z,2.90
2022-12-29T14:31:54.085Z,2.85
2022-12-29T14:34:20.893Z,2.90
2022-12-29T14:36:55.394Z,1.83
2022-12-29T14:39:45.192Z,2.72
2022-12-29T14:42:11.932Z,2.53
2022-12-29T14:44:50.872Z,2.38
2022-12-29T14:47:39.413Z,2.67
2022-12-29T14:50:14.431Z,2.67
2022-12-29T14:53:03.019Z,2.75
2022-12-29T14:55:50.981Z,2.17
2022-12-29T14:58:30.837Z,2.60
2022-12-29T15:01:00.484Z,3.17
2022-12-29T15:03:46.522Z,2.95
2022-12-29T15:06:19.773Z,2.83
2022-12-29T15:09:07.204Z,2.42
2022-12-29T15:11:36.706Z,2.80
2022-12-29T15:14:04.140Z,3.05
2022-12-29T15:16:36.792Z,2.13
2022-12-29T15:19:06.100Z,2.67
2022-12-29T15:21:36.649Z,2.00
2022-12-29T15:24:06.931Z,2.83
2022-12-29T15:26:52.917Z,2.90
2022-12-29T15:29:42.344Z,2.22
2022-12-29T15:32:28.054Z,2.63
2022-12-29T15:35:01.075Z,1.90
2022-12-29T15:37:39.274Z,2.92
2022-12-29T15:40:22.651Z,2.30
2022-12-29T15:43:27.055Z,2.00
2022-12-29T15:45:55.954Z,1.95
2022-12-29T15:48:26.347Z,2.20
2022-12-29T15:50:53.560Z,2.42
2022-12-29T15:53:30.211Z,1.88
2022-12-29T15:56:11.475Z,1.70
2022-12-29T15:58:49.790Z,1.65
2022-12-29T16:01:28.417Z,1.77
2022-12-29T16:03:57.808Z,1.30
2022-12-29T16:06:39.646Z,1.52
2022-12-29T16:09:16.843Z,1.88
2022-12-29T16:11:54.142Z,1.80
2022-12-29T16:14:33.146Z,1.33
2022-12-29T16:17:07.440Z,1.75
2022-12-29T16:19:41.504Z,1.40
2022-12-29T16:22:25.055Z,1.42
2022-12-29T16:25:00.823Z,1.88
2022-12-29T16:27:43.275Z,1.60
2022-12-29T16:30:34.216Z,1.73
2022-12-29T16:35:53.112Z,2.15
2022-12-29T16:38:23.979Z,1.60
2022-12-29T16:41:30.080Z,2.17
2022-12-29T16:44:24.277Z,1.85
2022-12-29T16:47:21.705Z,2.28
2022-12-29T16:49:54.437Z,1.73
2022-12-29T16:52:35.340Z,2.05
2022-12-29T16:55:03.079Z,1.90
2022-12-29T16:57:37.309Z,1.92
2022-12-29T17:00:09.138Z,1.70
2022-12-29T17:02:45.780Z,1.85
2022-12-29T17:05:18.781Z,2.10
2022-12-29T17:07:46.965Z,2.13
2022-12-29T17:10:15.670Z,1.67
2022-12-29T17:12:46.799Z,2.40
2022-12-29T17:15:26.039Z,1.63
2022-12-29T17:17:56.819Z,1.65
2022-12-29T17:20:30.610Z,2.35
2022-12-29T17:23:00.172Z,2.05
2022-12-29T17:25:36.739Z,1.38
2022-12-29T17:28:18.507Z,2.00
2022-12-29T17:30:45.388Z,2.08
2022-12-29T17:33:18.525Z,1.92
2022-12-29T17:35:49.359Z,2.33
2022-12-29T17:38:23.681Z,2.40
2022-12-29T17:40:50.967Z,1.90
2022-12-29T17:43:18.729Z,2.20
2022-12-29T17:45:52.781Z,1.80
2022-12-29T17:48:20.513Z,3.20
2022-12-29T17:50:53.015Z,1.65
2022-12-29T17:53:25.811Z,1.90
2022-12-29T17:55:52.703Z,1.05
2022-12-29T17:58:28.615Z,2.53
2022-12-29T18:00:59.658Z,2.42
2022-12-29T18:03:32.326Z,2.72
2022-12-29T18:05:59.968Z,3.00
2022-12-29T18:08:29.376Z,2.03
2022-12-29T18:10:57.300Z,2.58
2022-12-29T18:13:35.002Z,1.90
2022-12-29T18:16:06.293Z,2.53
2022-12-29T18:18:33.169Z,3.10
2022-12-29T18:21:00.573Z,3.05
2022-12-29T18:23:37.489Z,2.90
2022-12-29T18:26:27.072Z,2.97
2022-12-29T18:28:56.419Z,2.85
2022-12-29T18:31:28.249Z,2.65
2022-12-29T18:33:58.224Z,1.92
2022-12-29T18:36:26.966Z,2.15
2022-12-29T18:38:54.781Z,3.08
2022-12-29T18:41:29.751Z,2.15
2022-12-29T18:43:57.942Z,2.70
2022-12-29T18:46:24.805Z,3.00
2022-12-29T18:48:52.722Z,2.72
2022-12-29T18:51:23.239Z,2.60
2022-12-29T18:53:53.002Z,3.22
2022-12-29T18:56:22.504Z,2.53
2022-12-29T18:58:50.027Z,3.22
2022-12-29T19:01:24.515Z,2.70
2022-12-29T19:03:52.573Z,2.20
2022-12-29T19:06:21.330Z,2.85
2022-12-29T19:08:48.499Z,3.78
2022-12-29T19:11:15.419Z,2.97
2022-12-29T19:13:42.289Z,4.38
2022-12-29T19:16:20.744Z,3.03
2022-12-29T19:21:34.643Z,2.55
2022-12-29T19:24:01.398Z,2.90
2022-12-29T19:26:34.270Z,2.95
2022-12-29T19:29:01.147Z,3.53
2022-12-29T19:31:28.146Z,3.20
2022-12-29T19:33:55.211Z,2.80
2022-12-29T19:36:23.008Z,2.67
2022-12-29T19:38:50.181Z,4.35
2022-12-29T19:41:17.098Z,2.63
2022-12-29T19:43:44.112Z,4.20
2022-12-29T19:46:16.443Z,2.47
2022-12-29T19:48:43.599Z,3.22
2022-12-29T19:51:17.110Z,3.13
2022-12-29T19:53:46.040Z,4.45
2022-12-29T19:56:14.255Z,3.42
2022-12-29T19:58:46.575Z,2.85
2022-12-29T20:01:18.418Z,4.20
2022-12-29T20:03:45.610Z,2.28
2022-12-29T20:06:13.295Z,3.70
2022-12-29T20:08:40.396Z,3.75
2022-12-29T20:11:15.160Z,3.65
2022-12-29T20:13:43.234Z,3.33
2022-12-29T20:16:15.627Z,2.90
2022-12-29T20:18:43.312Z,3.20
2022-12-29T20:21:18.406Z,3.63
2022-12-29T20:23:47.336Z,2.90
2022-12-29T20:26:28.271Z,3.28
2022-12-29T20:28:57.468Z,2.53
2022-12-29T20:31:29.659Z,3.35
2022-12-29T20:33:56.782Z,3.72
2022-12-29T20:36:34.631Z,3.33
2022-12-29T20:39:06.848Z,4.00
2022-12-29T20:41:34.070Z,3.20
2022-12-29T20:44:01.020Z,3.60
2022-12-29T20:46:35.071Z,2.50
2022-12-29T20:49:07.892Z,2.70
2022-12-29T20:52:04.080Z,3.42
2022-12-29T20:54:22.964Z,3.83
2022-12-29T20:56:49.939Z,3.47
2022-12-29T20:59:27.279Z,3.40
2022-12-29T21:01:54.612Z,3.20
2022-12-29T21:04:21.544Z,3.50
2022-12-29T21:06:48.344Z,2.90
2022-12-29T21:09:15.172Z,1.77
2022-12-29T21:11:42.013Z,2.78
2022-12-29T21:14:09.594Z,4.07
2022-12-29T21:16:36.432Z,2.45
2022-12-29T21:19:03.560Z,2.35
2022-12-29T21:21:30.592Z,2.60
2022-12-29T21:24:05.175Z,2.55
2022-12-29T21:26:33.318Z,2.28
2022-12-29T21:29:01.149Z,2.70
2022-12-29T21:31:32.332Z,1.70
2022-12-29T21:34:00.379Z,2.67
2022-12-29T21:36:28.671Z,2.95
2022-12-29T21:38:57.347Z,3.25
2022-12-29T21:41:24.753Z,2.63
2022-12-29T21:44:11.244Z,2.85
2022-12-29T21:46:41.360Z,2.95
2022-12-29T21:49:08.801Z,2.58
2022-12-29T21:51:51.670Z,2.83
2022-12-29T21:54:49.109Z,2.90
2022-12-29T21:57:37.480Z,2.65
2022-12-29T22:00:27.279Z,3.15
2022-12-29T22:03:22.063Z,2.72
2022-12-29T22:06:09.973Z,2.45
2022-12-29T22:08:56.325Z,2.72
2022-12-29T22:11:41.849Z,3.92
2022-12-29T22:14:08.689Z,2.65
2022-12-29T22:16:35.701Z,2.65
2022-12-29T22:19:03.346Z,3.22
2022-12-29T22:21:30.257Z,3.13
2022-12-29T22:23:57.113Z,2.15
2022-12-29T22:26:23.905Z,3.05
2022-12-29T22:28:52.281Z,2.17
2022-12-29T22:31:30.736Z,1.55
2022-12-29T22:34:01.107Z,2.60
2022-12-29T22:36:29.813Z,2.50
2022-12-29T22:38:56.876Z,2.20
2022-12-29T22:41:24.604Z,2.63
2022-12-29T22:43:51.611Z,2.72
2022-12-29T22:46:18.669Z,2.38
2022-12-29T22:48:45.514Z,2.95
2022-12-29T22:51:12.375Z,1.88
2022-12-29T22:53:40.561Z,2.33
2022-12-29T22:56:11.630Z,2.47
2022-12-29T22:58:43.780Z,1.70
2022-12-29T23:01:13.417Z,2.70
2022-12-29T23:03:42.755Z,2.35
2022-12-29T23:06:13.587Z,2.72
2022-12-29T23:08:40.498Z,3.00
2022-12-29T23:11:11.606Z,1.88
2022-12-29T23:13:41.041Z,2.50
2022-12-29T23:16:08.248Z,2.80
2022-12-29T23:18:35.249Z,2.97
2022-12-29T23:21:02.441Z,2.53
2022-12-29T23:23:49.570Z,2.47
2022-12-29T23:26:19.614Z,3.38
2022-12-29T23:28:47.134Z,2.38
2022-12-29T23:31:15.753Z,1.98
2022-12-29T23:33:43.080Z,2.55
2022-12-29T23:36:10.075Z,1.88
2022-12-29T23:38:36.966Z,3.15
2022-12-29T23:41:04.071Z,2.10
2022-12-29T23:43:30.879Z,1.17
2022-12-29T23:45:57.749Z,2.10
2022-12-29T23:48:24.512Z,2.28
2022-12-29T23:50:51.297Z,1.73
2022-12-29T23:53:18.096Z,2.10
2022-12-29T23:55:44.834Z,2.83
2022-12-29T23:58:11.698Z,2.67
